createdAt,value
2023-01-27T02:15:29.638Z,-4.88
2023-01-27T02:17:57.255Z,-4.71
2023-01-27T02:20:29.200Z,-4.74
2023-01-27T02:23:21.750Z,-4.77
2023-01-27T02:26:18.484Z,-4.78
2023-01-27T02:28:51.179Z,-4.68
2023-01-27T02:31:22.847Z,-4.61
2023-01-27T02:33:50.485Z,-4.63
2023-01-27T02:36:17.946Z,-4.59
2023-01-27T02:38:50.267Z,-4.51
2023-01-27T02:41:17.358Z,-4.46
2023-01-27T02:43:51.777Z,-4.40
2023-01-27T02:46:25.002Z,-4.43
2023-01-27T02:48:52.432Z,-4.50
2023-01-27T02:51:19.579Z,-4.55
2023-01-27T02:53:52.668Z,-4.57
2023-01-27T02:56:21.153Z,-4.48
2023-01-27T02:58:49.834Z,-4.39
2023-01-27T03:01:27.771Z,-4.34
2023-01-27T03:03:59.184Z,-4.30
2023-01-27T03:06:33.607Z,-4.33
2023-01-27T03:09:04.850Z,-4.33
2023-01-27T03:11:50.442Z,-4.34
2023-01-27T03:14:18.529Z,-4.38
2023-01-27T03:17:06.662Z,-4.38
2023-01-27T03:19:34.011Z,-4.31
2023-01-27T03:22:02.802Z,-4.34
2023-01-27T03:24:31.167Z,-4.44
2023-01-27T03:27:01.290Z,-4.47
2023-01-27T03:29:55.582Z,-4.52
2023-01-27T03:32:30.317Z,-4.52
2023-01-27T03:35:34.125Z,-4.51
2023-01-27T03:38:29.656Z,-4.46
2023-01-27T03:41:25.654Z,-4.43
2023-01-27T03:44:11.847Z,-4.39
2023-01-27T03:46:40.021Z,-4.37
2023-01-27T03:49:07.386Z,-4.39
2023-01-27T03:51:34.723Z,-4.40
2023-01-27T03:54:09.250Z,-4.37
2023-01-27T03:56:38.967Z,-4.29
2023-01-27T03:59:06.231Z,-4.15
2023-01-27T04:01:35.335Z,-4.02
2023-01-27T04:04:21.405Z,-3.92
2023-01-27T04:06:54.828Z,-3.80
2023-01-27T04:09:26.864Z,-3.67
2023-01-27T04:11:54.836Z,-3.57
2023-01-27T04:14:24.362Z,-3.53
2023-01-27T04:17:01.531Z,-3.54
2023-01-27T04:19:28.682Z,-3.50
2023-01-27T04:21:56.130Z,-3.40
2023-01-27T04:24:28.745Z,-3.34
2023-01-27T04:27:00.062Z,-3.22
2023-01-27T04:29:36.520Z,-3.16
2023-01-27T04:32:11.874Z,-3.09
2023-01-27T04:34:39.932Z,-3.09
2023-01-27T04:37:07.600Z,-3.08
2023-01-27T04:39:34.950Z,-3.10
2023-01-27T04:42:02.348Z,-3.11
2023-01-27T04:44:30.274Z,-3.07
2023-01-27T04:46:57.574Z,-3.05
2023-01-27T04:49:26.424Z,-3.06
2023-01-27T04:51:54.233Z,-3.07
2023-01-27T04:54:28.809Z,-3.07
2023-01-27T04:56:58.278Z,-3.02
2023-01-27T04:59:25.478Z,-2.97
2023-01-27T05:01:55.443Z,-2.93
2023-01-27T05:04:26.009Z,-2.93
2023-01-27T05:06:58.178Z,-2.92
2023-01-27T05:09:25.842Z,-2.91
2023-01-27T05:11:58.205Z,-2.91
2023-01-27T05:14:26.257Z,-2.96
2023-01-27T05:16:54.216Z,-2.98
2023-01-27T05:19:21.517Z,-3.01
2023-01-27T05:21:49.367Z,-2.94
2023-01-27T05:24:16.349Z,-2.89
2023-01-27T05:26:51.447Z,-2.83
2023-01-27T05:29:18.597Z,-2.83
2023-01-27T05:31:46.525Z,-2.88
2023-01-27T05:34:13.923Z,-2.86
2023-01-27T05:36:40.926Z,-2.81
2023-01-27T05:39:10.081Z,-2.82
2023-01-27T05:41:37.417Z,-2.83
2023-01-27T05:44:04.917Z,-2.80
2023-01-27T05:46:33.065Z,-2.79
2023-01-27T05:49:01.427Z,-2.74
2023-01-27T05:51:30.167Z,-2.74
2023-01-27T05:53:57.370Z,-2.75
2023-01-27T05:56:26.066Z,-2.70
2023-01-27T05:58:55.581Z,-2.59
2023-01-27T06:01:27.541Z,-2.61
2023-01-27T06:03:54.879Z,-2.65
2023-01-27T06:06:23.459Z,-2.58
2023-01-27T06:08:50.611Z,-2.52
2023-01-27T06:11:19.421Z,-2.44
2023-01-27T06:13:49.419Z,-2.32
2023-01-27T06:16:17.732Z,-2.27
2023-01-27T06:18:45.247Z,-2.26
2023-01-27T06:21:14.565Z,-2.27
2023-01-27T06:23:41.903Z,-2.30
2023-01-27T06:26:16.014Z,-2.24
2023-01-27T06:28:43.267Z,-2.16
2023-01-27T06:31:15.810Z,-2.11
2023-01-27T06:33:42.993Z,-2.14
2023-01-27T06:36:14.544Z,-2.20
2023-01-27T06:38:41.803Z,-2.19
2023-01-27T06:41:09.062Z,-2.08
2023-01-27T06:43:36.314Z,-2.02
2023-01-27T06:46:05.863Z,-2.02
2023-01-27T06:48:33.574Z,-1.91
2023-01-27T06:51:00.622Z,-1.80
2023-01-27T06:53:27.998Z,-1.66
2023-01-27T06:55:56.463Z,-1.54
2023-01-27T06:58:23.715Z,-1.51
2023-01-27T07:00:51.169Z,-1.44
2023-01-27T07:03:18.642Z,-1.36
2023-01-27T07:05:45.672Z,-1.32
2023-01-27T07:08:13.129Z,-1.26
2023-01-27T07:10:42.032Z,-1.23
2023-01-27T07:13:11.322Z,-1.19
2023-01-27T07:15:38.467Z,-1.13
2023-01-27T07:18:05.727Z,-1.05
2023-01-27T07:20:33.405Z,-0.96
2023-01-27T13:11:02.067Z,10.44
2023-01-27T13:13:30.050Z,11.07
2023-01-27T13:16:25.369Z,11.22
2023-01-27T13:18:54.872Z,11.36
2023-01-27T13:21:24.850Z,11.55
2023-01-27T13:23:52.722Z,11.72
2023-01-27T13:26:31.341Z,11.78
2023-01-27T13:29:17.175Z,11.66
2023-01-27T13:31:58.008Z,11.18
2023-01-27T13:34:45.455Z,11.03
2023-01-27T13:37:23.236Z,11.00
2023-01-27T13:40:01.927Z,10.90
2023-01-27T13:42:43.298Z,10.72
2023-01-27T13:45:14.665Z,10.42
2023-01-27T13:48:01.938Z,10.18
2023-01-27T13:50:32.785Z,9.82
2023-01-27T13:52:59.611Z,9.26
2023-01-27T13:55:55.878Z,8.88
2023-01-27T13:58:47.989Z,8.62
2023-01-27T14:01:25.227Z,8.34
2023-01-27T14:04:08.287Z,7.96
2023-01-27T14:06:47.421Z,7.56
2023-01-27T14:09:21.398Z,7.25
2023-01-27T14:12:17.673Z,6.87
2023-01-27T14:14:59.860Z,6.46
2023-01-27T14:17:47.052Z,6.13
2023-01-27T14:20:25.679Z,5.79
2023-01-27T14:23:04.692Z,5.34
2023-01-27T14:25:33.843Z,5.01
2023-01-27T14:28:23.741Z,4.79
2023-01-27T14:30:57.099Z,4.62
2023-01-27T14:33:43.805Z,4.32
2023-01-27T14:36:21.164Z,4.06
2023-01-27T14:39:14.527Z,3.92
2023-01-27T14:42:07.226Z,3.73
2023-01-27T14:45:04.533Z,3.58
2023-01-27T14:47:32.050Z,3.40
2023-01-27T14:50:20.386Z,3.23
2023-01-27T14:53:05.713Z,3.06
2023-01-27T14:56:10.678Z,2.90
2023-01-27T14:59:11.248Z,2.76
2023-01-27T15:01:47.487Z,2.61
2023-01-27T15:04:44.768Z,2.48
2023-01-27T15:07:33.663Z,2.35
2023-01-27T15:10:06.916Z,2.21
2023-01-27T15:13:02.162Z,2.13
2023-01-27T15:15:56.526Z,2.06
2023-01-27T15:18:47.783Z,1.92
2023-01-27T15:21:33.134Z,1.84
2023-01-27T15:24:25.118Z,1.65
2023-01-27T15:26:52.554Z,1.52
2023-01-27T15:29:24.285Z,1.48
2023-01-27T15:32:25.651Z,1.44
2023-01-27T15:35:27.719Z,1.40
2023-01-27T15:38:00.068Z,1.41
2023-01-27T15:40:27.763Z,1.39
2023-01-27T15:42:58.375Z,1.38
2023-01-27T15:45:37.983Z,1.33
2023-01-27T15:48:18.703Z,1.30
2023-01-27T15:50:55.975Z,1.24
2023-01-27T15:53:37.836Z,1.18
2023-01-27T15:56:05.428Z,1.15
2023-01-27T15:58:40.151Z,1.11
2023-01-27T16:01:08.863Z,1.08
2023-01-27T16:03:43.411Z,1.07
2023-01-27T16:06:15.845Z,1.04
2023-01-27T16:09:09.874Z,0.99
2023-01-27T16:11:41.376Z,0.97
2023-01-27T16:14:16.837Z,0.96
2023-01-27T16:16:50.127Z,0.92
2023-01-27T16:19:17.473Z,0.89
2023-01-27T16:21:53.310Z,0.85
2023-01-27T19:58:31.001Z,-1.68
2023-01-27T20:01:02.121Z,-1.65
2023-01-27T20:03:30.840Z,-1.64
2023-01-27T20:05:58.207Z,-1.62
2023-01-27T20:08:28.599Z,-1.61
2023-01-27T20:10:56.365Z,-1.63
2023-01-27T20:13:24.127Z,-1.64
2023-01-27T20:15:53.018Z,-1.65
2023-01-27T20:18:22.868Z,-1.68
2023-01-27T20:20:50.864Z,-1.75
2023-01-27T20:23:18.255Z,-1.81
2023-01-27T20:25:46.225Z,-1.80
2023-01-27T20:28:15.226Z,-1.83
2023-01-27T20:30:42.742Z,-1.87
2023-01-27T20:33:10.232Z,-1.89
2023-01-27T20:35:40.155Z,-1.89
2023-01-27T20:38:10.171Z,-1.87
2023-01-27T20:40:39.946Z,-1.90
2023-01-27T20:43:12.352Z,-1.91
2023-01-27T20:45:40.503Z,-1.90
2023-01-27T20:48:10.028Z,-1.89
2023-01-27T20:50:39.235Z,-1.88
2023-01-27T20:53:07.512Z,-1.88
2023-01-27T20:55:37.064Z,-1.88
2023-01-27T20:58:06.018Z,-1.92
2023-01-27T21:00:33.663Z,-1.99
2023-01-27T21:03:08.443Z,-2.01
2023-01-27T21:05:35.648Z,-2.02
2023-01-27T21:08:03.301Z,-2.02
2023-01-27T21:10:36.800Z,-2.04
2023-01-27T21:13:26.787Z,-2.05
2023-01-27T21:15:54.481Z,-2.09
2023-01-27T21:18:24.158Z,-2.15
2023-01-27T21:20:56.048Z,-2.20
2023-01-27T21:23:23.785Z,-2.35
2023-01-27T21:25:51.661Z,-2.46
2023-01-27T21:28:20.051Z,-2.52
2023-01-27T21:30:47.401Z,-2.60
2023-01-27T21:33:17.505Z,-2.65
2023-01-27T21:35:59.298Z,-2.79
2023-01-27T21:38:29.309Z,-2.86
2023-01-27T21:41:05.305Z,-2.82
2023-01-27T21:43:52.932Z,-2.77
2023-01-27T21:46:20.085Z,-2.74
2023-01-27T21:48:47.916Z,-2.69
2023-01-27T21:51:17.106Z,-2.68
2023-01-27T21:53:44.605Z,-2.70
2023-01-27T21:56:11.893Z,-2.70
2023-01-27T21:58:42.459Z,-2.69
2023-01-27T22:01:15.179Z,-2.69
2023-01-27T22:03:42.925Z,-2.72
2023-01-27T22:06:15.173Z,-2.77
2023-01-27T22:08:43.135Z,-2.80
2023-01-27T22:11:12.485Z,-2.81
2023-01-27T22:13:42.761Z,-2.85
2023-01-27T22:16:13.623Z,-2.83
2023-01-27T22:18:41.251Z,-2.81
2023-01-27T22:21:14.247Z,-2.83
2023-01-27T22:23:41.393Z,-2.88
2023-01-27T22:26:08.744Z,-2.91
2023-01-27T22:28:36.004Z,-2.93
2023-01-27T22:31:03.197Z,-2.93
2023-01-27T22:33:32.060Z,-2.96
2023-01-27T22:36:03.707Z,-3.03
2023-01-27T22:38:31.252Z,-3.06
2023-01-27T22:40:58.924Z,-3.05
2023-01-27T22:43:26.404Z,-3.05
2023-01-27T22:45:58.674Z,-3.05
2023-01-27T22:48:26.102Z,-3.06
2023-01-27T22:50:53.465Z,-3.07
2023-01-27T22:53:20.914Z,-3.14
2023-01-27T22:55:56.556Z,-3.26
2023-01-27T22:58:24.736Z,-3.35
2023-01-27T23:00:52.189Z,-3.34
2023-01-27T23:03:19.585Z,-3.27
2023-01-27T23:05:50.278Z,-3.22
2023-01-27T23:08:20.908Z,-3.18
2023-01-27T23:10:49.624Z,-3.15
2023-01-27T23:13:17.155Z,-3.13
2023-01-27T23:15:51.676Z,-3.12
2023-01-27T23:18:19.155Z,-3.18
2023-01-27T23:20:46.387Z,-3.19
2023-01-27T23:23:14.665Z,-3.18
2023-01-27T23:25:46.438Z,-3.18
2023-01-27T23:28:16.335Z,-3.19
2023-01-27T23:30:44.214Z,-3.17
2023-01-27T23:33:12.475Z,-3.17
2023-01-27T23:35:45.185Z,-3.17
2023-01-27T23:38:30.190Z,-3.20
2023-01-27T23:41:07.627Z,-3.28
2023-01-27T23:43:34.667Z,-3.34
2023-01-27T23:46:01.726Z,-3.51
2023-01-27T23:48:31.251Z,-3.66
2023-01-27T23:50:58.413Z,-3.72
2023-01-27T23:53:25.659Z,-3.72
2023-01-27T23:55:59.239Z,-3.72
2023-01-27T23:58:27.159Z,-3.68
